sensor_id;sensor_type;location;lat;lon;timestamp;P1;durP1;ratioP1;P2;durP2;ratioP2
18592;SDS011;9426;54.118;17.948;2023-09-18T00:02:42;29.60;;;18.43;;
18592;SDS011;9426;54.118;17.948;2023-09-18T00:08:26;26.10;;;17.27;;
18592;SDS011;9426;54.118;17.948;2023-09-18T00:13:51;27.93;;;18.17;;
18592;SDS011;9426;54.118;17.948;2023-09-18T00:19:14;28.40;;;17.33;;
18592;SDS011;9426;54.118;17.948;2023-09-18T00:24:38;28.80;;;18.13;;
18592;SDS011;9426;54.118;17.948;2023-09-18T00:30:04;29.30;;;17.60;;
18592;SDS011;9426;54.118;17.948;2023-09-18T00:35:28;26.70;;;17.03;;
18592;SDS011;9426;54.118;17.948;2023-09-18T00:40:52;29.67;;;18.67;;
18592;SDS011;9426;54.118;17.948;2023-09-18T00:46:17;30.13;;;18.53;;
18592;SDS011;9426;54.118;17.948;2023-09-18T00:51:41;28.27;;;17.80;;
18592;SDS011;9426;54.118;17.948;2023-09-18T00:57:05;30.27;;;18.87;;
18592;SDS011;9426;54.118;17.948;2023-09-18T01:02:30;28.33;;;17.90;;
18592;SDS011;9426;54.118;17.948;2023-09-18T01:07:54;29.10;;;18.00;;
18592;SDS011;9426;54.118;17.948;2023-09-18T01:13:19;30.30;;;18.57;;
18592;SDS011;9426;54.118;17.948;2023-09-18T01:18:50;29.03;;;17.63;;
18592;SDS011;9426;54.118;17.948;2023-09-18T01:24:15;28.53;;;18.37;;
18592;SDS011;9426;54.118;17.948;2023-09-18T01:29:38;30.03;;;19.50;;
18592;SDS011;9426;54.118;17.948;2023-09-18T01:35:02;28.87;;;17.77;;
18592;SDS011;9426;54.118;17.948;2023-09-18T01:40:30;30.10;;;18.30;;
18592;SDS011;9426;54.118;17.948;2023-09-18T01:45:54;26.03;;;18.30;;
18592;SDS011;9426;54.118;17.948;2023-09-18T01:51:18;29.63;;;17.70;;
18592;SDS011;9426;54.118;17.948;2023-09-18T01:56:43;26.93;;;17.87;;
18592;SDS011;9426;54.118;17.948;2023-09-18T02:02:07;32.43;;;19.53;;
18592;SDS011;9426;54.118;17.948;2023-09-18T02:07:31;27.70;;;17.27;;
18592;SDS011;9426;54.118;17.948;2023-09-18T02:12:57;27.97;;;17.57;;
18592;SDS011;9426;54.118;17.948;2023-09-18T02:18:20;29.83;;;18.60;;
18592;SDS011;9426;54.118;17.948;2023-09-18T02:23:44;28.03;;;16.83;;
18592;SDS011;9426;54.118;17.948;2023-09-18T02:29:09;28.93;;;17.43;;
18592;SDS011;9426;54.118;17.948;2023-09-18T02:34:35;26.73;;;16.83;;
18592;SDS011;9426;54.118;17.948;2023-09-18T02:39:59;28.50;;;17.47;;
18592;SDS011;9426;54.118;17.948;2023-09-18T02:45:24;25.27;;;16.50;;
18592;SDS011;9426;54.118;17.948;2023-09-18T02:50:48;27.27;;;17.03;;
18592;SDS011;9426;54.118;17.948;2023-09-18T02:56:12;25.37;;;16.70;;
18592;SDS011;9426;54.118;17.948;2023-09-18T03:01:37;32.13;;;18.40;;
18592;SDS011;9426;54.118;17.948;2023-09-18T03:07:00;25.80;;;17.27;;
18592;SDS011;9426;54.118;17.948;2023-09-18T03:12:24;26.87;;;17.50;;
18592;SDS011;9426;54.118;17.948;2023-09-18T03:17:51;25.27;;;16.87;;
18592;SDS011;9426;54.118;17.948;2023-09-18T03:23:15;26.93;;;17.67;;
18592;SDS011;9426;54.118;17.948;2023-09-18T03:28:38;25.43;;;16.87;;
18592;SDS011;9426;54.118;17.948;2023-09-18T03:34:05;29.07;;;18.03;;
18592;SDS011;9426;54.118;17.948;2023-09-18T03:39:29;25.07;;;16.60;;
18592;SDS011;9426;54.118;17.948;2023-09-18T03:44:53;23.60;;;15.17;;
18592;SDS011;9426;54.118;17.948;2023-09-18T03:50:19;27.70;;;17.07;;
18592;SDS011;9426;54.118;17.948;2023-09-18T03:55:42;26.50;;;17.87;;
18592;SDS011;9426;54.118;17.948;2023-09-18T04:01:07;28.77;;;17.47;;
18592;SDS011;9426;54.118;17.948;2023-09-18T04:06:37;26.33;;;17.37;;
18592;SDS011;9426;54.118;17.948;2023-09-18T04:12:02;31.90;;;18.77;;
18592;SDS011;9426;54.118;17.948;2023-09-18T04:17:27;29.10;;;16.87;;
18592;SDS011;9426;54.118;17.948;2023-09-18T04:28:31;27.93;;;17.67;;
18592;SDS011;9426;54.118;17.948;2023-09-18T04:33:56;28.03;;;17.47;;
18592;SDS011;9426;54.118;17.948;2023-09-18T04:39:19;28.53;;;17.27;;
18592;SDS011;9426;54.118;17.948;2023-09-18T04:44:45;30.10;;;18.10;;
18592;SDS011;9426;54.118;17.948;2023-09-18T04:50:09;28.63;;;18.70;;
18592;SDS011;9426;54.118;17.948;2023-09-18T04:55:35;31.50;;;19.03;;
18592;SDS011;9426;54.118;17.948;2023-09-18T05:01:02;31.90;;;19.67;;
18592;SDS011;9426;54.118;17.948;2023-09-18T05:06:26;31.23;;;19.33;;
18592;SDS011;9426;54.118;17.948;2023-09-18T05:11:50;26.87;;;17.90;;
18592;SDS011;9426;54.118;17.948;2023-09-18T05:17:16;29.93;;;18.57;;
18592;SDS011;9426;54.118;17.948;2023-09-18T05:22:40;30.57;;;17.57;;
18592;SDS011;9426;54.118;17.948;2023-09-18T05:28:04;24.47;;;15.77;;
18592;SDS011;9426;54.118;17.948;2023-09-18T05:33:29;29.63;;;16.70;;
18592;SDS011;9426;54.118;17.948;2023-09-18T05:38:53;24.23;;;14.73;;
18592;SDS011;9426;54.118;17.948;2023-09-18T05:44:17;32.90;;;17.67;;
18592;SDS011;9426;54.118;17.948;2023-09-18T05:49:42;27.43;;;17.03;;
18592;SDS011;9426;54.118;17.948;2023-09-18T05:55:06;28.90;;;16.43;;
18592;SDS011;9426;54.118;17.948;2023-09-18T06:00:30;21.23;;;15.60;;
18592;SDS011;9426;54.118;17.948;2023-09-18T06:05:55;26.33;;;15.73;;
18592;SDS011;9426;54.118;17.948;2023-09-18T06:11:19;22.17;;;15.43;;
18592;SDS011;9426;54.118;17.948;2023-09-18T06:16:43;27.20;;;15.47;;
18592;SDS011;9426;54.118;17.948;2023-09-18T06:22:09;21.20;;;14.57;;
18592;SDS011;9426;54.118;17.948;2023-09-18T06:27:34;22.93;;;14.37;;
18592;SDS011;9426;54.118;17.948;2023-09-18T06:32:57;21.00;;;14.33;;
18592;SDS011;9426;54.118;17.948;2023-09-18T06:38:23;23.97;;;14.93;;
18592;SDS011;9426;54.118;17.948;2023-09-18T06:43:47;18.67;;;13.17;;
18592;SDS011;9426;54.118;17.948;2023-09-18T06:49:11;21.63;;;14.33;;
18592;SDS011;9426;54.118;17.948;2023-09-18T06:54:36;17.93;;;13.20;;
18592;SDS011;9426;54.118;17.948;2023-09-18T07:00:01;20.57;;;12.90;;
18592;SDS011;9426;54.118;17.948;2023-09-18T07:05:25;16.87;;;12.67;;
18592;SDS011;9426;54.118;17.948;2023-09-18T07:10:51;17.57;;;11.80;;
18592;SDS011;9426;54.118;17.948;2023-09-18T07:16:15;16.97;;;11.30;;
18592;SDS011;9426;54.118;17.948;2023-09-18T07:21:39;17.30;;;11.33;;
18592;SDS011;9426;54.118;17.948;2023-09-18T07:27:05;17.47;;;11.77;;
18592;SDS011;9426;54.118;17.948;2023-09-18T07:32:29;17.57;;;11.77;;
18592;SDS011;9426;54.118;17.948;2023-09-18T07:37:57;13.43;;;10.50;;
18592;SDS011;9426;54.118;17.948;2023-09-18T07:43:23;15.83;;;9.83;;
18592;SDS011;9426;54.118;17.948;2023-09-18T07:48:47;15.87;;;9.70;;
18592;SDS011;9426;54.118;17.948;2023-09-18T07:54:13;11.80;;;8.27;;
18592;SDS011;9426;54.118;17.948;2023-09-18T07:59:40;14.75;;;9.18;;
18592;SDS011;9426;54.118;17.948;2023-09-18T08:05:04;14.73;;;8.88;;
18592;SDS011;9426;54.118;17.948;2023-09-18T08:10:28;10.40;;;7.88;;
18592;SDS011;9426;54.118;17.948;2023-09-18T08:15:54;16.70;;;8.38;;
18592;SDS011;9426;54.118;17.948;2023-09-18T08:21:18;13.43;;;8.10;;
18592;SDS011;9426;54.118;17.948;2023-09-18T08:26:42;9.15;;;7.55;;
18592;SDS011;9426;54.118;17.948;2023-09-18T08:32:07;9.23;;;7.07;;
18592;SDS011;9426;54.118;17.948;2023-09-18T08:37:30;9.82;;;7.10;;
18592;SDS011;9426;54.118;17.948;2023-09-18T08:42:55;7.55;;;5.97;;
18592;SDS011;9426;54.118;17.948;2023-09-18T08:48:23;8.77;;;6.50;;
18592;SDS011;9426;54.118;17.948;2023-09-18T08:53:47;8.30;;;6.03;;
18592;SDS011;9426;54.118;17.948;2023-09-18T08:59:11;8.70;;;6.28;;
18592;SDS011;9426;54.118;17.948;2023-09-18T09:04:37;8.15;;;5.45;;
18592;SDS011;9426;54.118;17.948;2023-09-18T09:10:00;8.43;;;5.70;;
18592;SDS011;9426;54.118;17.948;2023-09-18T09:15:25;7.82;;;5.88;;
18592;SDS011;9426;54.118;17.948;2023-09-18T09:20:54;10.65;;;5.53;;
18592;SDS011;9426;54.118;17.948;2023-09-18T09:26:20;6.50;;;5.43;;
18592;SDS011;9426;54.118;17.948;2023-09-18T09:31:44;9.85;;;5.63;;
18592;SDS011;9426;54.118;17.948;2023-09-18T09:37:10;9.23;;;5.20;;
18592;SDS011;9426;54.118;17.948;2023-09-18T09:42:38;10.60;;;5.20;;
18592;SDS011;9426;54.118;17.948;2023-09-18T09:48:02;7.60;;;5.47;;
18592;SDS011;9426;54.118;17.948;2023-09-18T09:53:44;8.40;;;5.13;;
18592;SDS011;9426;54.118;17.948;2023-09-18T09:59:10;6.43;;;4.68;;
18592;SDS011;9426;54.118;17.948;2023-09-18T10:04:34;6.25;;;4.90;;
18592;SDS011;9426;54.118;17.948;2023-09-18T10:10:00;4.90;;;4.40;;
18592;SDS011;9426;54.118;17.948;2023-09-18T10:15:24;6.72;;;4.43;;
18592;SDS011;9426;54.118;17.948;2023-09-18T10:20:48;5.38;;;4.20;;
18592;SDS011;9426;54.118;17.948;2023-09-18T10:26:14;6.03;;;4.30;;
18592;SDS011;9426;54.118;17.948;2023-09-18T10:31:43;4.65;;;3.95;;
18592;SDS011;9426;54.118;17.948;2023-09-18T10:37:08;5.95;;;4.00;;
18592;SDS011;9426;54.118;17.948;2023-09-18T10:42:35;4.70;;;3.65;;
18592;SDS011;9426;54.118;17.948;2023-09-18T10:48:01;5.30;;;3.75;;
18592;SDS011;9426;54.118;17.948;2023-09-18T10:53:25;4.80;;;3.50;;
18592;SDS011;9426;54.118;17.948;2023-09-18T10:58:57;5.47;;;3.72;;
18592;SDS011;9426;54.118;17.948;2023-09-18T11:04:21;18.25;;;6.28;;
18592;SDS011;9426;54.118;17.948;2023-09-18T11:09:46;4.90;;;3.83;;
18592;SDS011;9426;54.118;17.948;2023-09-18T11:15:13;4.95;;;3.50;;
18592;SDS011;9426;54.118;17.948;2023-09-18T11:26:31;5.90;;;3.47;;
18592;SDS011;9426;54.118;17.948;2023-09-18T11:31:56;6.88;;;2.90;;
18592;SDS011;9426;54.118;17.948;2023-09-18T11:37:21;4.20;;;2.97;;
18592;SDS011;9426;54.118;17.948;2023-09-18T11:48:28;7.30;;;2.90;;
18592;SDS011;9426;54.118;17.948;2023-09-18T11:53:54;4.35;;;3.10;;
18592;SDS011;9426;54.118;17.948;2023-09-18T11:59:22;3.50;;;3.03;;
18592;SDS011;9426;54.118;17.948;2023-09-18T12:04:57;7.40;;;2.90;;
18592;SDS011;9426;54.118;17.948;2023-09-18T12:10:22;4.57;;;2.85;;
18592;SDS011;9426;54.118;17.948;2023-09-18T12:15:46;3.60;;;2.75;;
18592;SDS011;9426;54.118;17.948;2023-09-18T12:21:12;5.43;;;3.00;;
18592;SDS011;9426;54.118;17.948;2023-09-18T12:26:37;6.30;;;3.40;;
18592;SDS011;9426;54.118;17.948;2023-09-18T12:32:01;4.38;;;2.60;;
18592;SDS011;9426;54.118;17.948;2023-09-18T12:37:29;4.07;;;2.80;;
18592;SDS011;9426;54.118;17.948;2023-09-18T12:42:53;4.90;;;3.03;;
18592;SDS011;9426;54.118;17.948;2023-09-18T12:48:17;21.13;;;3.97;;
18592;SDS011;9426;54.118;17.948;2023-09-18T12:53:43;5.40;;;3.08;;
18592;SDS011;9426;54.118;17.948;2023-09-18T12:59:06;6.10;;;3.30;;
18592;SDS011;9426;54.118;17.948;2023-09-18T13:04:32;3.72;;;2.80;;
18592;SDS011;9426;54.118;17.948;2023-09-18T13:10:03;7.82;;;4.90;;
18592;SDS011;9426;54.118;17.948;2023-09-18T13:15:31;6.15;;;3.15;;
18592;SDS011;9426;54.118;17.948;2023-09-18T13:20:55;16.05;;;6.38;;
18592;SDS011;9426;54.118;17.948;2023-09-18T13:26:21;66.70;;;51.17;;
18592;SDS011;9426;54.118;17.948;2023-09-18T13:31:46;4.82;;;4.32;;
18592;SDS011;9426;54.118;17.948;2023-09-18T13:37:09;43.92;;;30.20;;
18592;SDS011;9426;54.118;17.948;2023-09-18T13:42:37;9.00;;;5.30;;
18592;SDS011;9426;54.118;17.948;2023-09-18T13:48:01;8.25;;;5.07;;
18592;SDS011;9426;54.118;17.948;2023-09-18T13:53:25;11.48;;;7.70;;
18592;SDS011;9426;54.118;17.948;2023-09-18T13:58:51;25.15;;;15.35;;
18592;SDS011;9426;54.118;17.948;2023-09-18T14:04:15;18.48;;;12.00;;
18592;SDS011;9426;54.118;17.948;2023-09-18T14:09:39;14.98;;;8.63;;
18592;SDS011;9426;54.118;17.948;2023-09-18T14:15:05;6.35;;;4.07;;
18592;SDS011;9426;54.118;17.948;2023-09-18T14:20:29;7.10;;;4.50;;
18592;SDS011;9426;54.118;17.948;2023-09-18T14:25:53;14.90;;;9.75;;
18592;SDS011;9426;54.118;17.948;2023-09-18T14:31:18;10.13;;;6.13;;
18592;SDS011;9426;54.118;17.948;2023-09-18T14:36:42;12.90;;;8.48;;
18592;SDS011;9426;54.118;17.948;2023-09-18T14:42:09;17.23;;;11.23;;
18592;SDS011;9426;54.118;17.948;2023-09-18T14:47:34;13.40;;;8.88;;
18592;SDS011;9426;54.118;17.948;2023-09-18T14:52:59;12.98;;;7.22;;
18592;SDS011;9426;54.118;17.948;2023-09-18T14:58:25;8.55;;;5.82;;
18592;SDS011;9426;54.118;17.948;2023-09-18T15:03:52;7.05;;;6.13;;
18592;SDS011;9426;54.118;17.948;2023-09-18T15:09:17;8.30;;;5.93;;
18592;SDS011;9426;54.118;17.948;2023-09-18T15:14:41;21.90;;;13.13;;
18592;SDS011;9426;54.118;17.948;2023-09-18T15:20:07;11.93;;;7.85;;
18592;SDS011;9426;54.118;17.948;2023-09-18T15:25:33;11.30;;;8.00;;
18592;SDS011;9426;54.118;17.948;2023-09-18T15:30:59;11.70;;;8.70;;
18592;SDS011;9426;54.118;17.948;2023-09-18T15:36:25;15.85;;;9.40;;
18592;SDS011;9426;54.118;17.948;2023-09-18T15:41:48;7.93;;;6.32;;
18592;SDS011;9426;54.118;17.948;2023-09-18T15:47:13;12.95;;;7.25;;
18592;SDS011;9426;54.118;17.948;2023-09-18T15:52:38;8.35;;;6.10;;
18592;SDS011;9426;54.118;17.948;2023-09-18T15:58:03;8.38;;;6.22;;
18592;SDS011;9426;54.118;17.948;2023-09-18T16:03:29;8.38;;;6.60;;
18592;SDS011;9426;54.118;17.948;2023-09-18T16:08:55;7.88;;;5.82;;
18592;SDS011;9426;54.118;17.948;2023-09-18T16:14:21;10.73;;;5.70;;
18592;SDS011;9426;54.118;17.948;2023-09-18T16:19:45;13.05;;;5.70;;
18592;SDS011;9426;54.118;17.948;2023-09-18T16:25:11;10.63;;;7.05;;
18592;SDS011;9426;54.118;17.948;2023-09-18T16:30:35;27.33;;;15.25;;
18592;SDS011;9426;54.118;17.948;2023-09-18T16:36:00;9.00;;;6.28;;
18592;SDS011;9426;54.118;17.948;2023-09-18T16:41:27;6.72;;;5.47;;
18592;SDS011;9426;54.118;17.948;2023-09-18T16:46:51;8.05;;;5.63;;
18592;SDS011;9426;54.118;17.948;2023-09-18T16:52:16;7.90;;;5.45;;
18592;SDS011;9426;54.118;17.948;2023-09-18T16:57:43;7.38;;;5.43;;
18592;SDS011;9426;54.118;17.948;2023-09-18T17:03:08;10.85;;;5.90;;
18592;SDS011;9426;54.118;17.948;2023-09-18T17:08:32;6.40;;;5.43;;
18592;SDS011;9426;54.118;17.948;2023-09-18T17:13:57;7.72;;;5.85;;
18592;SDS011;9426;54.118;17.948;2023-09-18T17:19:22;9.00;;;5.70;;
18592;SDS011;9426;54.118;17.948;2023-09-18T17:24:46;7.57;;;5.75;;
18592;SDS011;9426;54.118;17.948;2023-09-18T17:30:12;8.20;;;6.05;;
18592;SDS011;9426;54.118;17.948;2023-09-18T17:35:36;7.28;;;5.78;;
18592;SDS011;9426;54.118;17.948;2023-09-18T17:41:01;7.25;;;5.80;;
18592;SDS011;9426;54.118;17.948;2023-09-18T17:46:27;7.78;;;6.25;;
18592;SDS011;9426;54.118;17.948;2023-09-18T17:51:51;8.50;;;6.30;;
18592;SDS011;9426;54.118;17.948;2023-09-18T17:57:15;10.60;;;7.10;;
18592;SDS011;9426;54.118;17.948;2023-09-18T18:02:41;11.90;;;7.38;;
18592;SDS011;9426;54.118;17.948;2023-09-18T18:08:12;11.90;;;7.22;;
18592;SDS011;9426;54.118;17.948;2023-09-18T18:13:36;11.77;;;7.35;;
18592;SDS011;9426;54.118;17.948;2023-09-18T18:19:01;10.68;;;7.90;;
18592;SDS011;9426;54.118;17.948;2023-09-18T18:24:25;12.47;;;8.30;;
18592;SDS011;9426;54.118;17.948;2023-09-18T18:29:49;11.65;;;8.07;;
18592;SDS011;9426;54.118;17.948;2023-09-18T18:35:19;16.57;;;8.77;;
18592;SDS011;9426;54.118;17.948;2023-09-18T18:40:53;12.60;;;9.70;;
18592;SDS011;9426;54.118;17.948;2023-09-18T18:46:27;14.33;;;8.77;;
18592;SDS011;9426;54.118;17.948;2023-09-18T18:51:54;14.27;;;9.23;;
18592;SDS011;9426;54.118;17.948;2023-09-18T18:57:19;12.40;;;9.13;;
18592;SDS011;9426;54.118;17.948;2023-09-18T19:02:43;16.03;;;9.97;;
18592;SDS011;9426;54.118;17.948;2023-09-18T19:08:10;20.33;;;10.27;;
18592;SDS011;9426;54.118;17.948;2023-09-18T19:13:35;16.57;;;10.60;;
18592;SDS011;9426;54.118;17.948;2023-09-18T19:19:03;16.80;;;10.57;;
18592;SDS011;9426;54.118;17.948;2023-09-18T19:24:28;15.20;;;10.27;;
18592;SDS011;9426;54.118;17.948;2023-09-18T19:29:53;14.33;;;11.43;;
18592;SDS011;9426;54.118;17.948;2023-09-18T19:35:17;15.33;;;11.50;;
18592;SDS011;9426;54.118;17.948;2023-09-18T19:40:43;18.37;;;12.00;;
18592;SDS011;9426;54.118;17.948;2023-09-18T19:46:07;17.37;;;11.70;;
18592;SDS011;9426;54.118;17.948;2023-09-18T19:51:32;16.15;;;11.90;;
18592;SDS011;9426;54.118;17.948;2023-09-18T19:56:58;18.33;;;12.80;;
18592;SDS011;9426;54.118;17.948;2023-09-18T20:02:22;16.23;;;12.97;;
18592;SDS011;9426;54.118;17.948;2023-09-18T20:07:47;17.57;;;12.77;;
18592;SDS011;9426;54.118;17.948;2023-09-18T20:13:12;18.10;;;13.13;;
18592;SDS011;9426;54.118;17.948;2023-09-18T20:18:36;18.97;;;13.63;;
18592;SDS011;9426;54.118;17.948;2023-09-18T20:24:00;24.53;;;13.67;;
18592;SDS011;9426;54.118;17.948;2023-09-18T20:29:26;17.97;;;13.83;;
18592;SDS011;9426;54.118;17.948;2023-09-18T20:34:50;23.47;;;14.90;;
18592;SDS011;9426;54.118;17.948;2023-09-18T20:40:14;23.30;;;15.10;;
18592;SDS011;9426;54.118;17.948;2023-09-18T20:45:39;19.43;;;14.40;;
18592;SDS011;9426;54.118;17.948;2023-09-18T20:51:04;17.40;;;13.90;;
18592;SDS011;9426;54.118;17.948;2023-09-18T20:56:28;19.97;;;14.10;;
18592;SDS011;9426;54.118;17.948;2023-09-18T21:01:54;21.50;;;15.40;;
18592;SDS011;9426;54.118;17.948;2023-09-18T21:07:19;21.33;;;14.43;;
18592;SDS011;9426;54.118;17.948;2023-09-18T21:12:43;19.97;;;14.40;;
18592;SDS011;9426;54.118;17.948;2023-09-18T21:18:10;21.87;;;15.60;;
18592;SDS011;9426;54.118;17.948;2023-09-18T21:23:35;23.07;;;15.50;;
18592;SDS011;9426;54.118;17.948;2023-09-18T21:28:59;18.90;;;15.40;;
18592;SDS011;9426;54.118;17.948;2023-09-18T21:34:26;21.60;;;15.30;;
18592;SDS011;9426;54.118;17.948;2023-09-18T21:39:50;21.50;;;15.10;;
18592;SDS011;9426;54.118;17.948;2023-09-18T21:45:15;20.23;;;14.60;;
18592;SDS011;9426;54.118;17.948;2023-09-18T21:50:40;21.83;;;15.37;;
18592;SDS011;9426;54.118;17.948;2023-09-18T21:56:04;20.97;;;15.03;;
18592;SDS011;9426;54.118;17.948;2023-09-18T22:01:28;22.33;;;15.60;;
18592;SDS011;9426;54.118;17.948;2023-09-18T22:06:55;19.25;;;14.23;;
18592;SDS011;9426;54.118;17.948;2023-09-18T22:12:19;22.08;;;14.10;;
18592;SDS011;9426;54.118;17.948;2023-09-18T22:17:43;20.97;;;15.17;;
18592;SDS011;9426;54.118;17.948;2023-09-18T22:23:10;20.52;;;14.70;;
18592;SDS011;9426;54.118;17.948;2023-09-18T22:28:35;21.20;;;15.65;;
18592;SDS011;9426;54.118;17.948;2023-09-18T22:34:01;29.25;;;16.25;;
18592;SDS011;9426;54.118;17.948;2023-09-18T22:56:28;17.98;;;15.35;;
18592;SDS011;9426;54.118;17.948;2023-09-18T23:01:53;24.08;;;15.80;;
18592;SDS011;9426;54.118;17.948;2023-09-18T23:07:17;20.48;;;16.52;;
18592;SDS011;9426;54.118;17.948;2023-09-18T23:12:43;23.92;;;17.25;;
18592;SDS011;9426;54.118;17.948;2023-09-18T23:18:07;28.63;;;20.27;;
18592;SDS011;9426;54.118;17.948;2023-09-18T23:23:32;22.50;;;18.55;;
18592;SDS011;9426;54.118;17.948;2023-09-18T23:29:00;25.25;;;19.00;;
18592;SDS011;9426;54.118;17.948;2023-09-18T23:34:25;28.70;;;20.33;;
18592;SDS011;9426;54.118;17.948;2023-09-18T23:39:50;26.83;;;19.50;;
18592;SDS011;9426;54.118;17.948;2023-09-18T23:45:16;26.90;;;19.97;;
18592;SDS011;9426;54.118;17.948;2023-09-18T23:50:44;28.13;;;20.13;;
18592;SDS011;9426;54.118;17.948;2023-09-18T23:56:10;29.03;;;20.63;;
